createdAt,value
2023-06-09T00:00:00.830Z,1012.43
2023-06-09T00:16:03.210Z,1012.33
2023-06-09T00:31:00.247Z,1012.26
2023-06-09T00:46:02.305Z,1012.16
2023-06-09T01:00:04.347Z,1012.23
2023-06-09T01:16:01.804Z,1012.13
2023-06-09T01:31:03.817Z,1011.99
2023-06-09T01:46:01.124Z,1011.99
2023-06-09T02:00:03.308Z,1011.86
2023-06-09T02:16:00.709Z,1011.89
2023-06-09T02:31:02.923Z,1011.75
2023-06-09T02:46:05.011Z,1011.65
2023-06-09T03:00:01.862Z,1011.75
2023-06-09T03:16:04.054Z,1011.75
2023-06-09T03:31:01.270Z,1011.79
2023-06-09T03:46:02.996Z,1011.92
2023-06-09T04:00:04.775Z,1012.06
2023-06-09T04:16:01.618Z,1012.16
2023-06-09T04:31:03.636Z,1012.4
2023-06-09T04:46:00.656Z,1012.36
2023-06-09T05:00:02.145Z,1012.4
2023-06-09T05:16:04.294Z,1012.43
2023-06-09T05:31:00.236Z,1012.6
2023-06-09T05:46:02.274Z,1012.67
2023-06-09T06:00:03.618Z,1012.74
2023-06-09T06:16:00.408Z,1012.7
2023-06-09T06:31:02.051Z,1012.7
2023-06-09T06:46:03.753Z,1012.74
2023-06-09T07:00:05.121Z,1012.6
2023-06-09T07:16:01.073Z,1012.53
2023-06-09T07:31:02.111Z,1012.53
2023-06-09T07:46:03.394Z,1012.4
2023-06-09T08:00:04.562Z,1012.19
2023-06-09T08:16:00.769Z,1012.13
2023-06-09T08:31:01.453Z,1011.92
2023-06-09T08:46:02.647Z,1011.75
2023-06-09T09:00:03.449Z,1011.62
2023-06-09T09:16:04.640Z,1011.45
2023-06-09T09:31:00.677Z,1011.25
2023-06-09T09:46:01.801Z,1011.11
2023-06-09T10:00:02.613Z,1011.01
2023-06-09T10:16:04.035Z,1010.77
2023-06-09T10:31:00.422Z,1010.6
2023-06-09T10:46:01.166Z,1010.3
2023-06-09T11:00:01.847Z,1010.1
2023-06-09T11:16:03.320Z,1009.93
2023-06-09T11:31:04.539Z,1009.69
2023-06-09T11:46:00.521Z,1009.52
2023-06-09T12:00:00.962Z,1009.59
2023-06-09T12:16:02.039Z,1009.42
2023-06-09T12:31:03.084Z,1009.05
2023-06-09T12:46:04.334Z,1008.71
2023-06-09T13:00:15.567Z,1008.71
2023-06-09T13:16:01.227Z,1008.54
2023-06-09T13:31:04.012Z,1008.37
2023-06-09T13:46:03.372Z,1008.33
2023-06-09T14:00:04.659Z,1008.27
2023-06-09T14:16:00.835Z,1008.37
2023-06-09T14:31:01.823Z,1008.67
2023-06-09T14:46:03.251Z,1008.67
2023-06-09T15:00:05.030Z,1008.71
2023-06-09T15:16:00.424Z,1008.74
2023-06-09T15:31:01.510Z,1008.61
2023-06-09T15:46:04.487Z,1008.64
2023-06-09T16:00:03.880Z,1008.54
2023-06-09T16:16:05.325Z,1008.47
2023-06-09T16:31:00.754Z,1008.4
2023-06-09T16:46:02.163Z,1008.44
2023-06-09T17:00:03.172Z,1008.4
2023-06-09T17:16:04.402Z,1008.64
2023-06-09T17:31:00.335Z,1008.77
2023-06-09T17:46:01.241Z,1009.01
2023-06-09T18:00:01.986Z,1008.91
2023-06-09T18:16:02.989Z,1009.05
2023-06-09T18:31:03.952Z,1009.32
2023-06-09T18:46:00.515Z,1009.59
2023-06-09T19:00:01.004Z,1009.79
2023-06-09T19:16:02.044Z,1010.03
2023-06-09T19:31:03.026Z,1010.3
2023-06-09T19:46:03.803Z,1010.57
2023-06-09T20:00:04.609Z,1010.81
2023-06-09T20:16:00.818Z,1011.01
2023-06-09T20:31:02.006Z,1011.18
2023-06-09T20:46:03.158Z,1011.25
2023-06-09T21:00:04.086Z,1011.28
2023-06-09T21:16:00.418Z,1011.35
2023-06-09T21:31:01.359Z,1011.28
2023-06-09T21:46:02.636Z,1011.45
2023-06-09T22:00:03.734Z,1011.45
2023-06-09T22:16:04.471Z,1011.38
2023-06-09T22:31:01.190Z,1011.28
2023-06-09T22:46:02.569Z,1011.15
2023-06-09T23:00:03.408Z,1011.21
2023-06-09T23:16:04.651Z,1011.15
2023-06-09T23:31:00.520Z,1011.08
2023-06-09T23:46:02.015Z,1010.94
